createdAt,value
2018-07-16T00:01:32.363Z,20.09
2018-07-16T00:04:03.062Z,20.06
2018-07-16T00:06:33.849Z,19.99
2018-07-16T00:09:04.742Z,19.92
2018-07-16T00:11:36.346Z,19.83
2018-07-16T00:14:07.312Z,19.71
2018-07-16T00:16:38.229Z,19.66
2018-07-16T00:19:08.975Z,19.57
2018-07-16T00:21:39.909Z,19.55
2018-07-16T00:24:10.842Z,19.52
2018-07-16T00:26:41.535Z,19.47
2018-07-16T00:29:12.447Z,19.44
2018-07-16T00:31:43.191Z,19.39
2018-07-16T00:34:13.816Z,19.40
2018-07-16T00:36:44.447Z,19.40
2018-07-16T00:39:15.535Z,19.46
2018-07-16T00:41:46.564Z,19.45
2018-07-16T00:44:17.332Z,19.43
2018-07-16T00:46:48.128Z,19.39
2018-07-16T00:49:18.856Z,19.37
2018-07-16T00:51:49.565Z,19.39
2018-07-16T00:54:20.378Z,19.38
2018-07-16T00:56:51.106Z,19.36
2018-07-16T00:59:21.739Z,19.28
2018-07-16T01:01:52.456Z,19.17
2018-07-16T01:04:23.119Z,19.11
2018-07-16T01:06:53.783Z,19.09
2018-07-16T01:09:24.449Z,19.09
2018-07-16T01:11:55.114Z,19.10
2018-07-16T01:14:25.826Z,19.13
2018-07-16T01:16:56.513Z,19.17
2018-07-16T01:19:27.179Z,19.24
2018-07-16T01:21:57.872Z,19.20
2018-07-16T01:24:28.564Z,19.24
2018-07-16T01:26:59.410Z,19.25
2018-07-16T01:29:30.378Z,19.22
2018-07-16T01:32:01.126Z,19.23
2018-07-16T01:34:32.057Z,19.21
2018-07-16T01:37:02.848Z,19.22
2018-07-16T01:39:33.598Z,19.22
2018-07-16T01:42:04.478Z,19.16
2018-07-16T01:44:35.473Z,19.10
2018-07-16T01:47:06.470Z,19.10
2018-07-16T01:49:37.486Z,19.07
2018-07-16T01:52:08.220Z,19.01
2018-07-16T01:54:39.409Z,18.90
2018-07-16T01:57:10.400Z,18.75
2018-07-16T01:59:41.364Z,18.67
2018-07-16T02:02:12.736Z,18.66
2018-07-16T02:04:43.458Z,18.61
2018-07-16T02:07:14.978Z,18.48
2018-07-16T02:09:46.009Z,18.35
2018-07-16T02:12:17.121Z,18.22
2018-07-16T02:14:48.020Z,18.08
2018-07-16T02:17:18.900Z,17.94
2018-07-16T02:19:49.888Z,17.82
2018-07-16T02:22:20.829Z,17.81
2018-07-16T02:24:51.898Z,17.77
2018-07-16T02:27:22.801Z,17.60
2018-07-16T02:29:53.840Z,17.53
2018-07-16T02:32:24.501Z,17.43
2018-07-16T02:34:55.493Z,17.50
2018-07-16T02:37:26.234Z,17.50
2018-07-16T02:39:56.954Z,17.54
2018-07-16T02:42:27.631Z,17.54
2018-07-16T02:44:58.352Z,17.49
2018-07-16T02:47:29.037Z,17.47
2018-07-16T02:49:59.768Z,17.41
2018-07-16T02:52:30.511Z,17.35
2018-07-16T02:55:01.209Z,17.29
2018-07-16T02:57:32.015Z,17.22
2018-07-16T03:00:02.732Z,17.17
2018-07-16T03:02:36.567Z,17.12
2018-07-16T03:05:07.831Z,17.08
2018-07-16T03:07:38.585Z,17.03
2018-07-16T03:10:09.240Z,17.00
2018-07-16T03:12:39.938Z,16.93
2018-07-16T03:15:11.664Z,16.89
2018-07-16T03:17:42.400Z,16.77
2018-07-16T03:20:13.686Z,16.69
2018-07-16T03:22:44.375Z,16.61
2018-07-16T03:25:15.041Z,16.60
2018-07-16T03:27:45.739Z,16.61
2018-07-16T03:30:17.012Z,16.59
2018-07-16T03:32:47.716Z,16.57
2018-07-16T03:35:18.414Z,16.54
2018-07-16T03:37:49.110Z,16.52
2018-07-16T03:40:19.818Z,16.48
2018-07-16T03:42:50.591Z,16.50
2018-07-16T03:45:21.256Z,16.52
2018-07-16T03:47:52.049Z,16.49
2018-07-16T03:50:22.756Z,16.46
2018-07-16T03:52:53.453Z,16.36
2018-07-16T03:55:24.223Z,16.29
2018-07-16T03:57:55.167Z,16.26
2018-07-16T04:00:26.361Z,16.28
2018-07-16T04:02:57.106Z,16.21
2018-07-16T04:05:27.821Z,16.15
2018-07-16T04:07:58.502Z,16.07
2018-07-16T04:10:29.150Z,15.97
2018-07-16T04:12:59.886Z,15.95
2018-07-16T04:15:30.672Z,16.02
2018-07-16T04:18:01.360Z,16.09
2018-07-16T04:20:32.079Z,16.14
2018-07-16T04:23:02.765Z,16.21
2018-07-16T04:25:33.443Z,16.16
2018-07-16T04:28:04.190Z,16.17
2018-07-16T04:30:34.872Z,16.21
2018-07-16T04:33:05.635Z,16.23
2018-07-16T04:35:36.331Z,16.38
2018-07-16T04:38:07.076Z,16.53
2018-07-16T04:40:37.681Z,16.64
2018-07-16T04:43:08.375Z,16.71
2018-07-16T04:45:39.053Z,16.76
2018-07-16T04:48:09.808Z,16.76
2018-07-16T04:50:40.557Z,16.75
2018-07-16T04:53:11.353Z,16.76
2018-07-16T04:55:42.033Z,16.70
2018-07-16T04:58:12.748Z,16.66
2018-07-16T05:00:43.464Z,16.67
2018-07-16T05:03:14.188Z,16.67
2018-07-16T05:05:44.892Z,16.69
2018-07-16T05:08:15.575Z,16.74
2018-07-16T05:10:46.345Z,16.87
2018-07-16T05:13:16.963Z,16.80
2018-07-16T05:15:47.714Z,16.83
2018-07-16T05:18:21.311Z,16.82
2018-07-16T05:20:52.009Z,16.87
2018-07-16T05:23:22.695Z,16.93
2018-07-16T05:25:53.072Z,17.02
2018-07-16T05:28:23.634Z,17.10
2018-07-16T05:30:54.319Z,17.20
2018-07-16T05:33:24.980Z,17.29
2018-07-16T05:35:55.685Z,17.39
2018-07-16T05:38:26.415Z,17.46
2018-07-16T05:40:57.096Z,17.54
2018-07-16T05:43:27.816Z,17.63
2018-07-16T05:45:58.490Z,17.66
2018-07-16T05:48:29.222Z,17.71
2018-07-16T05:50:59.855Z,17.78
2018-07-16T05:53:30.672Z,17.87
2018-07-16T05:56:01.358Z,17.87
2018-07-16T05:58:32.063Z,17.96
2018-07-16T06:01:02.759Z,18.11
2018-07-16T06:03:33.471Z,18.25
2018-07-16T06:06:04.245Z,18.37
2018-07-16T06:08:34.963Z,18.53
2018-07-16T06:11:05.764Z,18.67
2018-07-16T06:13:36.480Z,18.82
2018-07-16T06:16:38.215Z,18.98
2018-07-16T06:19:39.747Z,19.12
2018-07-16T06:22:10.479Z,19.29
2018-07-16T06:24:41.151Z,19.35
2018-07-16T06:27:11.840Z,19.44
2018-07-16T06:29:42.579Z,19.51
2018-07-16T06:32:13.272Z,19.60
2018-07-16T06:38:17.407Z,19.82
2018-07-16T06:40:48.302Z,19.91
2018-07-16T06:43:18.834Z,20.07
2018-07-16T06:45:49.747Z,20.11
2018-07-16T06:48:20.499Z,20.29
2018-07-16T06:50:51.792Z,20.34
2018-07-16T06:53:22.678Z,20.36
2018-07-16T06:55:53.498Z,20.49
2018-07-16T06:58:24.197Z,20.56
2018-07-16T07:00:55.255Z,20.71
2018-07-16T07:03:26.007Z,20.74
2018-07-16T07:05:56.696Z,20.93
2018-07-16T07:08:27.422Z,21.02
2018-07-16T07:10:58.127Z,21.17
2018-07-16T07:13:28.857Z,21.27
2018-07-16T07:15:59.598Z,21.40
2018-07-16T07:18:30.294Z,21.57
2018-07-16T07:21:00.983Z,21.71
2018-07-16T07:23:31.679Z,21.89
2018-07-16T07:26:02.403Z,22.12
2018-07-16T07:28:33.073Z,22.35
2018-07-16T07:31:03.799Z,22.55
2018-07-16T07:33:34.513Z,22.73
2018-07-16T07:36:05.319Z,22.86
2018-07-16T07:38:35.981Z,23.04
2018-07-16T07:41:07.166Z,23.27
2018-07-16T07:43:37.824Z,23.50
2018-07-16T07:46:08.526Z,23.66
2018-07-16T07:48:39.182Z,23.90
2018-07-16T07:51:09.829Z,24.20
2018-07-16T07:53:40.509Z,24.41
2018-07-16T07:56:11.268Z,24.62
2018-07-16T07:58:41.917Z,24.77
2018-07-16T08:01:12.608Z,25.00
2018-07-16T08:03:43.260Z,25.20
2018-07-16T08:06:14.013Z,25.45
2018-07-16T08:08:44.722Z,25.63
2018-07-16T08:11:15.427Z,25.89
2018-07-16T08:13:46.164Z,26.12
2018-07-16T08:16:16.895Z,26.26
2018-07-16T08:18:47.702Z,26.42
2018-07-16T08:21:18.458Z,26.67
2018-07-16T08:23:49.112Z,26.87
2018-07-16T08:26:19.815Z,27.12
2018-07-16T08:28:50.557Z,27.35
2018-07-16T08:31:21.300Z,27.56
2018-07-16T08:33:52.052Z,27.61
2018-07-16T08:36:22.739Z,27.86
2018-07-16T08:38:53.534Z,28.04
2018-07-16T08:41:24.346Z,28.27
2018-07-16T08:43:54.733Z,28.46
2018-07-16T08:46:25.397Z,28.68
2018-07-16T08:48:56.136Z,28.88
2018-07-16T08:51:26.841Z,28.99
2018-07-16T08:53:57.622Z,29.02
2018-07-16T08:56:28.331Z,29.14
2018-07-16T08:58:59.043Z,29.35
2018-07-16T09:01:29.827Z,29.48
2018-07-16T09:04:00.512Z,29.57
2018-07-16T09:06:31.264Z,29.63
2018-07-16T09:09:01.977Z,29.80
2018-07-16T09:11:32.702Z,29.94
2018-07-16T09:14:03.685Z,30.01
2018-07-16T09:16:34.336Z,30.03
2018-07-16T09:19:05.092Z,30.22
2018-07-16T09:21:35.766Z,30.43
2018-07-16T09:24:06.521Z,30.64
2018-07-16T09:26:37.291Z,30.70
2018-07-16T09:29:08.161Z,30.94
2018-07-16T09:31:38.892Z,31.08
2018-07-16T09:34:09.904Z,31.12
2018-07-16T09:36:40.588Z,31.23
2018-07-16T09:39:11.400Z,31.33
2018-07-16T09:41:42.111Z,31.59
2018-07-16T09:44:12.881Z,31.77
2018-07-16T09:46:43.588Z,31.83
2018-07-16T09:49:14.011Z,31.71
2018-07-16T09:51:44.575Z,31.84
2018-07-16T09:54:15.286Z,32.14
2018-07-16T09:56:46.036Z,32.43
2018-07-16T09:59:16.769Z,32.50
2018-07-16T10:01:51.554Z,32.69
2018-07-16T10:04:22.288Z,32.61
2018-07-16T10:06:53.043Z,32.40
2018-07-16T10:09:23.726Z,32.76
2018-07-16T10:11:54.410Z,32.81
2018-07-16T10:14:25.152Z,32.11
2018-07-16T10:16:55.878Z,31.95
2018-07-16T10:19:26.535Z,31.82
2018-07-16T10:21:57.269Z,31.62
2018-07-16T10:24:28.093Z,31.73
2018-07-16T10:26:58.952Z,32.04
2018-07-16T10:29:29.628Z,32.16
2018-07-16T10:32:00.340Z,31.86
2018-07-16T10:34:30.709Z,31.68
2018-07-16T10:37:01.346Z,31.76
2018-07-16T10:39:32.046Z,32.26
2018-07-16T10:42:02.766Z,32.90
2018-07-16T10:44:33.450Z,33.01
2018-07-16T10:47:04.209Z,32.85
2018-07-16T10:49:34.931Z,32.45
2018-07-16T10:52:05.630Z,32.21
2018-07-16T10:54:36.401Z,32.71
2018-07-16T10:57:07.222Z,33.15
2018-07-16T10:59:38.741Z,33.34
2018-07-16T11:02:09.464Z,33.72
2018-07-16T11:04:40.281Z,33.89
2018-07-16T11:07:11.020Z,34.14
2018-07-16T11:09:41.716Z,34.33
2018-07-16T11:12:12.402Z,34.45
2018-07-16T11:14:42.733Z,34.57
2018-07-16T11:17:13.402Z,34.67
2018-07-16T11:19:43.696Z,34.82
2018-07-16T11:22:14.412Z,35.07
2018-07-16T11:24:45.131Z,35.35
2018-07-16T11:27:15.846Z,35.03
2018-07-16T11:29:46.556Z,34.56
2018-07-16T11:32:17.277Z,34.63
2018-07-16T11:34:48.012Z,34.02
2018-07-16T11:37:18.728Z,33.55
2018-07-16T11:39:49.457Z,33.34
2018-07-16T11:42:20.105Z,33.78
2018-07-16T11:44:50.838Z,34.20
2018-07-16T11:47:21.525Z,34.77
2018-07-16T11:49:52.251Z,34.96
2018-07-16T11:52:29.601Z,34.61
2018-07-16T11:55:00.329Z,34.51
2018-07-16T11:57:31.109Z,34.53
2018-07-16T12:00:02.628Z,33.29
2018-07-16T12:02:33.371Z,32.81
2018-07-16T12:05:04.127Z,32.63
2018-07-16T12:07:34.838Z,32.91
2018-07-16T12:10:05.607Z,33.34
2018-07-16T12:12:36.367Z,33.61
2018-07-16T12:15:07.052Z,34.08
2018-07-16T12:17:37.740Z,34.64
2018-07-16T12:20:08.514Z,34.92
2018-07-16T12:22:39.246Z,34.58
2018-07-16T12:25:09.864Z,34.39
2018-07-16T12:27:43.462Z,34.68
2018-07-16T12:30:14.407Z,34.94
2018-07-16T12:32:45.206Z,34.93
2018-07-16T12:35:15.848Z,35.13
2018-07-16T12:37:46.541Z,35.57
2018-07-16T12:40:17.242Z,35.59
2018-07-16T12:42:48.037Z,35.83
2018-07-16T12:45:18.682Z,36.19
2018-07-16T12:47:49.450Z,36.41
2018-07-16T12:50:20.070Z,36.80
2018-07-16T12:52:50.771Z,36.83
2018-07-16T12:55:21.491Z,36.96
2018-07-16T12:57:52.155Z,36.97
2018-07-16T13:00:22.843Z,37.30
2018-07-16T13:02:53.521Z,37.49
2018-07-16T13:05:24.215Z,37.42
2018-07-16T13:07:54.943Z,37.54
2018-07-16T13:10:25.597Z,37.48
2018-07-16T13:12:56.428Z,37.28
2018-07-16T13:15:27.062Z,37.49
2018-07-16T13:17:57.733Z,37.66
2018-07-16T13:20:28.479Z,37.38
2018-07-16T13:22:59.140Z,37.61
2018-07-16T13:25:29.932Z,37.62
2018-07-16T13:28:00.635Z,37.59
2018-07-16T13:30:31.281Z,37.74
2018-07-16T13:33:01.981Z,38.01
2018-07-16T13:35:32.795Z,38.10
2018-07-16T13:38:03.487Z,37.14
2018-07-16T13:40:34.180Z,36.74
2018-07-16T13:43:05.015Z,36.01
2018-07-16T13:45:35.685Z,35.47
2018-07-16T13:48:06.093Z,35.75
2018-07-16T13:50:36.658Z,36.24
2018-07-16T13:53:07.934Z,36.35
2018-07-16T13:55:38.604Z,36.64
2018-07-16T13:58:09.299Z,36.88
2018-07-16T14:00:39.980Z,36.90
2018-07-16T14:03:10.348Z,37.24
2018-07-16T14:05:40.934Z,37.24
2018-07-16T14:08:11.618Z,37.29
2018-07-16T14:10:42.323Z,37.07
2018-07-16T14:13:13.024Z,36.98
2018-07-16T14:18:44.779Z,36.14
2018-07-16T14:21:15.508Z,35.73
2018-07-16T14:23:46.341Z,35.89
2018-07-16T14:26:17.108Z,35.96
2018-07-16T14:28:47.769Z,35.71
2018-07-16T14:31:18.488Z,35.65
2018-07-16T14:33:49.136Z,35.74
2018-07-16T14:36:20.060Z,35.90
2018-07-16T14:38:50.806Z,36.13
2018-07-16T14:41:21.539Z,36.25
2018-07-16T14:43:52.271Z,36.39
2018-07-16T14:46:23.042Z,35.77
2018-07-16T14:48:53.712Z,35.83
2018-07-16T14:51:24.412Z,35.90
2018-07-16T14:53:55.117Z,35.64
2018-07-16T14:56:25.839Z,35.57
2018-07-16T14:58:56.554Z,35.37
2018-07-16T15:01:27.331Z,34.91
2018-07-16T15:03:57.977Z,34.79
2018-07-16T15:06:28.776Z,34.78
2018-07-16T15:08:59.502Z,34.90
2018-07-16T15:11:30.201Z,34.94
2018-07-16T15:14:01.165Z,35.09
2018-07-16T15:16:31.947Z,34.94
2018-07-16T15:19:03.487Z,34.96
2018-07-16T15:21:34.235Z,35.03
2018-07-16T15:24:04.946Z,35.15
2018-07-16T15:26:36.226Z,35.27
2018-07-16T15:29:07.118Z,35.38
2018-07-16T15:31:37.799Z,35.22
2018-07-16T15:34:08.715Z,34.98
2018-07-16T15:36:39.413Z,34.69
2018-07-16T15:39:10.365Z,34.58
2018-07-16T15:41:41.120Z,34.52
2018-07-16T15:44:11.990Z,34.42
2018-07-16T15:46:42.664Z,34.52
2018-07-16T15:49:13.342Z,34.44
2018-07-16T15:51:44.069Z,34.47
2018-07-16T15:54:14.842Z,34.18
2018-07-16T15:56:45.502Z,33.78
2018-07-16T15:59:16.145Z,33.53
2018-07-16T16:01:46.937Z,33.18
2018-07-16T16:04:17.646Z,33.18
2018-07-16T16:06:48.415Z,33.16
2018-07-16T16:09:19.135Z,33.18
2018-07-16T16:11:49.866Z,33.08
2018-07-16T16:14:20.523Z,32.86
2018-07-16T16:16:51.190Z,32.67
2018-07-16T16:19:21.835Z,32.63
2018-07-16T16:21:52.587Z,32.56
2018-07-16T16:24:23.265Z,32.55
2018-07-16T16:26:54.043Z,32.49
2018-07-16T16:29:24.841Z,32.42
2018-07-16T16:31:55.653Z,32.41
2018-07-16T16:34:26.352Z,32.28
2018-07-16T16:36:57.070Z,32.06
2018-07-16T16:39:27.751Z,31.90
2018-07-16T16:41:58.498Z,31.69
2018-07-16T16:44:29.191Z,31.59
2018-07-16T16:46:59.977Z,31.50
2018-07-16T16:49:30.647Z,31.39
2018-07-16T16:52:01.384Z,31.32
2018-07-16T16:54:32.143Z,31.37
2018-07-16T16:57:03.041Z,31.46
2018-07-16T16:59:33.691Z,31.57
2018-07-16T17:02:04.370Z,31.59
2018-07-16T17:04:35.053Z,31.52
2018-07-16T17:07:05.757Z,31.36
2018-07-16T17:09:36.447Z,31.04
2018-07-16T17:12:07.178Z,30.83
2018-07-16T17:14:37.913Z,30.62
2018-07-16T17:17:08.688Z,30.48
2018-07-16T17:19:39.387Z,30.41
2018-07-16T17:22:10.071Z,30.39
2018-07-16T17:24:40.808Z,30.34
2018-07-16T17:27:11.499Z,30.29
2018-07-16T17:29:42.191Z,30.27
2018-07-16T17:32:15.852Z,30.26
2018-07-16T17:34:47.222Z,30.16
2018-07-16T17:37:17.883Z,29.98
2018-07-16T17:39:48.223Z,29.88
2018-07-16T17:42:18.780Z,29.79
2018-07-16T17:44:49.509Z,29.66
2018-07-16T17:47:20.214Z,29.66
2018-07-16T17:49:50.856Z,29.63
2018-07-16T17:52:21.592Z,29.51
2018-07-16T17:54:52.251Z,29.44
2018-07-16T17:57:22.917Z,29.27
2018-07-16T17:59:53.559Z,29.18
2018-07-16T18:02:24.268Z,29.11
2018-07-16T18:04:54.996Z,29.02
2018-07-16T18:07:25.694Z,28.93
2018-07-16T18:09:56.420Z,28.87
2018-07-16T18:12:27.104Z,28.79
2018-07-16T18:14:57.776Z,28.73
2018-07-16T18:17:28.447Z,28.65
2018-07-16T18:19:59.156Z,28.60
2018-07-16T18:22:29.889Z,28.58
2018-07-16T18:25:00.582Z,28.50
2018-07-16T18:27:31.371Z,28.46
2018-07-16T18:30:02.350Z,28.46
2018-07-16T18:32:33.401Z,28.43
2018-07-16T18:35:04.519Z,28.41
2018-07-16T18:37:35.519Z,28.39
2018-07-16T18:40:06.691Z,28.39
2018-07-16T18:42:37.468Z,28.31
2018-07-16T18:45:08.138Z,28.25
2018-07-16T18:47:38.833Z,28.14
2018-07-16T18:50:10.114Z,28.09
2018-07-16T18:52:42.664Z,27.97
2018-07-16T18:55:13.640Z,27.85
2018-07-16T18:57:44.407Z,27.77
2018-07-16T19:00:15.300Z,27.70
2018-07-16T19:02:46.120Z,27.67
2018-07-16T19:05:16.904Z,27.56
2018-07-16T19:07:48.620Z,27.44
2018-07-16T19:10:19.604Z,27.35
2018-07-16T19:12:51.155Z,27.27
2018-07-16T19:15:28.456Z,27.18
2018-07-16T19:17:59.525Z,27.11
2018-07-16T19:20:30.767Z,27.01
2018-07-16T19:23:01.607Z,26.94
2018-07-16T19:25:32.784Z,26.88
2018-07-16T19:28:03.854Z,26.79
2018-07-16T19:30:34.620Z,26.70
2018-07-16T19:33:05.507Z,26.63
2018-07-16T19:35:36.250Z,26.54
2018-07-16T19:38:07.008Z,26.45
2018-07-16T19:40:37.741Z,26.37
2018-07-16T19:43:08.580Z,26.29
2018-07-16T19:45:39.393Z,26.21
2018-07-16T19:48:10.341Z,26.12
2018-07-16T19:50:41.411Z,26.06
2018-07-16T19:53:12.695Z,25.98
2018-07-16T19:55:43.596Z,25.86
2018-07-16T19:58:15.136Z,25.74
2018-07-16T20:00:45.998Z,25.64
2018-07-16T20:03:16.731Z,25.53
2018-07-16T20:05:47.468Z,25.44
2018-07-16T20:08:18.296Z,25.35
2018-07-16T20:10:49.165Z,25.29
2018-07-16T20:13:20.505Z,25.20
2018-07-16T20:15:52.000Z,25.15
2018-07-16T20:18:22.686Z,25.11
2018-07-16T20:20:55.830Z,25.02
2018-07-16T20:23:26.490Z,24.94
2018-07-16T20:25:58.289Z,24.85
2018-07-16T20:28:28.952Z,24.79
2018-07-16T20:30:59.639Z,24.72
2018-07-16T20:33:30.300Z,24.66
2018-07-16T20:36:00.992Z,24.59
2018-07-16T20:38:31.756Z,24.50
2018-07-16T20:41:02.492Z,24.45
2018-07-16T20:43:33.227Z,24.39
2018-07-16T20:46:03.873Z,24.33
2018-07-16T20:48:34.550Z,24.29
2018-07-16T20:51:05.245Z,24.25
2018-07-16T20:53:35.909Z,24.21
2018-07-16T20:56:07.042Z,24.19
2018-07-16T20:58:37.835Z,24.15
2018-07-16T21:01:08.527Z,24.12
2018-07-16T21:03:39.864Z,24.09
2018-07-16T21:06:10.532Z,24.05
2018-07-16T21:08:41.154Z,23.98
2018-07-16T21:11:11.785Z,23.90
2018-07-16T21:14:45.120Z,23.86
2018-07-16T21:17:15.769Z,23.77
2018-07-16T21:19:46.482Z,23.72
2018-07-16T21:22:17.184Z,23.68
2018-07-16T21:24:47.892Z,23.63
2018-07-16T21:27:18.859Z,23.57
2018-07-16T21:29:49.652Z,23.56
2018-07-16T21:32:20.118Z,23.53
2018-07-16T21:34:50.608Z,23.53
2018-07-16T21:37:21.349Z,23.51
2018-07-16T21:39:52.012Z,23.51
2018-07-16T21:42:22.766Z,23.46
2018-07-16T21:44:53.438Z,23.41
2018-07-16T21:47:24.261Z,23.36
2018-07-16T21:49:54.896Z,23.34
2018-07-16T21:52:25.664Z,23.30
2018-07-16T21:54:56.379Z,23.27
2018-07-16T21:57:27.111Z,23.25
2018-07-16T21:59:57.790Z,23.21
2018-07-16T22:02:28.719Z,23.24
2018-07-16T22:04:59.370Z,23.25
2018-07-16T22:07:30.049Z,23.19
2018-07-16T22:10:00.694Z,23.09
2018-07-16T22:12:31.401Z,23.06
2018-07-16T22:15:02.164Z,23.01
2018-07-16T22:17:32.836Z,22.97
2018-07-16T22:20:03.604Z,22.95
2018-07-16T22:22:34.301Z,22.88
2018-07-16T22:25:05.083Z,22.87
2018-07-16T22:27:35.794Z,22.81
2018-07-16T22:30:06.495Z,22.74
2018-07-16T22:32:37.129Z,22.67
2018-07-16T22:35:07.806Z,22.62
2018-07-16T22:37:38.519Z,22.55
2018-07-16T22:40:09.838Z,22.52
2018-07-16T22:42:40.540Z,22.42
2018-07-16T22:45:11.258Z,22.25
2018-07-16T22:47:42.003Z,22.15
2018-07-16T22:50:12.711Z,22.03
2018-07-16T22:52:43.381Z,21.91
2018-07-16T22:55:14.088Z,21.83
2018-07-16T22:57:44.741Z,21.74
2018-07-16T23:00:15.518Z,21.68
2018-07-16T23:02:46.185Z,21.63
2018-07-16T23:05:16.875Z,21.58
2018-07-16T23:07:47.587Z,21.52
2018-07-16T23:10:18.275Z,21.45
2018-07-16T23:12:48.991Z,21.38
2018-07-16T23:15:19.654Z,21.31
2018-07-16T23:17:50.296Z,21.23
2018-07-16T23:20:20.989Z,21.15
2018-07-16T23:22:56.334Z,21.08
2018-07-16T23:25:27.866Z,20.96
2018-07-16T23:27:58.539Z,20.89
2018-07-16T23:30:29.244Z,20.85
2018-07-16T23:32:59.887Z,20.74
2018-07-16T23:35:30.598Z,20.69
2018-07-16T23:38:01.254Z,20.62
2018-07-16T23:40:32.058Z,20.58
2018-07-16T23:43:02.703Z,20.53
2018-07-16T23:45:33.380Z,20.52
2018-07-16T23:48:04.092Z,20.50
2018-07-16T23:50:34.809Z,20.47
2018-07-16T23:53:05.504Z,20.42
2018-07-16T23:55:36.308Z,20.32
2018-07-16T23:58:06.916Z,20.30
